sensor_id;sensor_type;location;lat;lon;timestamp;pressure;altitude;pressure_sealevel;temperature;humidity
42411;BME280;28056;51.112;0.984;2023-05-10T00:04:57;100103.31;;;9.95;80.70
42411;BME280;28056;51.112;0.984;2023-05-10T00:07:24;100101.05;;;9.82;84.72
42411;BME280;28056;51.112;0.984;2023-05-10T00:09:51;100101.57;;;9.99;86.35
42411;BME280;28056;51.112;0.984;2023-05-10T00:12:19;100101.83;;;10.18;85.85
42411;BME280;28056;51.112;0.984;2023-05-10T00:14:46;100101.69;;;9.75;88.72
42411;BME280;28056;51.112;0.984;2023-05-10T00:17:13;100098.12;;;10.26;86.22
42411;BME280;28056;51.112;0.984;2023-05-10T00:19:41;100093.82;;;9.09;91.90
42411;BME280;28056;51.112;0.984;2023-05-10T00:22:08;100097.98;;;9.14;95.56
42411;BME280;28056;51.112;0.984;2023-05-10T00:24:36;100097.26;;;8.91;98.10
42411;BME280;28056;51.112;0.984;2023-05-10T00:27:03;100099.05;;;9.06;98.39
42411;BME280;28056;51.112;0.984;2023-05-10T00:29:31;100100.29;;;8.58;100.00
42411;BME280;28056;51.112;0.984;2023-05-10T00:31:58;100099.14;;;8.47;100.00
42411;BME280;28056;51.112;0.984;2023-05-10T00:34:25;100101.13;;;8.75;100.00
42411;BME280;28056;51.112;0.984;2023-05-10T00:36:52;100102.70;;;8.92;100.00
42411;BME280;28056;51.112;0.984;2023-05-10T00:39:20;100103.79;;;8.84;100.00
42411;BME280;28056;51.112;0.984;2023-05-10T00:41:47;100105.15;;;9.38;100.00
42411;BME280;28056;51.112;0.984;2023-05-10T00:44:14;100108.41;;;9.49;98.46
42411;BME280;28056;51.112;0.984;2023-05-10T00:46:42;100107.41;;;9.60;98.59
42411;BME280;28056;51.112;0.984;2023-05-10T00:49:09;100111.00;;;9.19;98.23
42411;BME280;28056;51.112;0.984;2023-05-10T00:51:36;100109.93;;;8.76;100.00
42411;BME280;28056;51.112;0.984;2023-05-10T00:54:04;100114.35;;;9.18;100.00
42411;BME280;28056;51.112;0.984;2023-05-10T00:56:31;100115.85;;;9.13;100.00
42411;BME280;28056;51.112;0.984;2023-05-10T00:58:58;100114.43;;;9.01;100.00
42411;BME280;28056;51.112;0.984;2023-05-10T01:01:26;100115.35;;;9.44;100.00
42411;BME280;28056;51.112;0.984;2023-05-10T01:03:54;100118.99;;;9.14;100.00
42411;BME280;28056;51.112;0.984;2023-05-10T01:06:22;100120.20;;;9.56;99.37
42411;BME280;28056;51.112;0.984;2023-05-10T01:08:49;100120.78;;;9.06;100.00
42411;BME280;28056;51.112;0.984;2023-05-10T01:11:17;100120.24;;;9.38;98.70
42411;BME280;28056;51.112;0.984;2023-05-10T01:13:50;100120.48;;;8.96;100.00
42411;BME280;28056;51.112;0.984;2023-05-10T01:16:19;100123.23;;;9.21;99.29
42411;BME280;28056;51.112;0.984;2023-05-10T01:18:48;100120.00;;;9.79;96.65
42411;BME280;28056;51.112;0.984;2023-05-10T01:21:23;100119.71;;;9.67;96.55
42411;BME280;28056;51.112;0.984;2023-05-10T01:24:28;100122.74;;;9.28;98.01
42411;BME280;28056;51.112;0.984;2023-05-10T01:27:18;100123.25;;;9.35;98.39
42411;BME280;28056;51.112;0.984;2023-05-10T01:30:07;100120.79;;;8.90;99.69
42411;BME280;28056;51.112;0.984;2023-05-10T01:32:42;100120.45;;;9.12;98.84
42411;BME280;28056;51.112;0.984;2023-05-10T01:35:15;100116.43;;;8.93;99.92
42411;BME280;28056;51.112;0.984;2023-05-10T01:37:50;100117.57;;;9.26;99.81
42411;BME280;28056;51.112;0.984;2023-05-10T01:40:23;100119.34;;;8.65;100.00
42411;BME280;28056;51.112;0.984;2023-05-10T01:43:00;100118.97;;;9.25;97.83
42411;BME280;28056;51.112;0.984;2023-05-10T01:45:33;100119.75;;;9.09;98.48
42411;BME280;28056;51.112;0.984;2023-05-10T01:48:06;100117.96;;;9.34;98.87
42411;BME280;28056;51.112;0.984;2023-05-10T01:50:36;100120.00;;;9.10;98.86
42411;BME280;28056;51.112;0.984;2023-05-10T01:53:07;100120.67;;;9.24;97.96
42411;BME280;28056;51.112;0.984;2023-05-10T01:55:35;100122.46;;;9.40;96.45
42411;BME280;28056;51.112;0.984;2023-05-10T01:58:08;100123.06;;;9.13;98.48
42411;BME280;28056;51.112;0.984;2023-05-10T02:00:40;100123.20;;;9.51;96.47
42411;BME280;28056;51.112;0.984;2023-05-10T02:03:10;100127.79;;;8.97;98.75
42411;BME280;28056;51.112;0.984;2023-05-10T02:05:39;100128.46;;;8.94;100.00
42411;BME280;28056;51.112;0.984;2023-05-10T02:08:07;100127.53;;;9.18;98.70
42411;BME280;28056;51.112;0.984;2023-05-10T02:10:35;100129.89;;;9.17;98.79
42411;BME280;28056;51.112;0.984;2023-05-10T02:13:04;100132.07;;;8.86;100.00
42411;BME280;28056;51.112;0.984;2023-05-10T02:15:32;100135.45;;;8.40;100.00
42411;BME280;28056;51.112;0.984;2023-05-10T02:18:02;100133.89;;;8.71;100.00
42411;BME280;28056;51.112;0.984;2023-05-10T02:20:31;100139.32;;;8.53;100.00
42411;BME280;28056;51.112;0.984;2023-05-10T02:22:59;100137.33;;;8.46;100.00
42411;BME280;28056;51.112;0.984;2023-05-10T02:25:28;100135.96;;;8.70;100.00
42411;BME280;28056;51.112;0.984;2023-05-10T02:27:58;100132.20;;;8.46;100.00
42411;BME280;28056;51.112;0.984;2023-05-10T02:30:27;100127.61;;;8.38;100.00
42411;BME280;28056;51.112;0.984;2023-05-10T02:32:56;100132.54;;;8.68;100.00
42411;BME280;28056;51.112;0.984;2023-05-10T02:35:25;100133.23;;;8.29;100.00
42411;BME280;28056;51.112;0.984;2023-05-10T02:37:53;100137.02;;;8.39;100.00
42411;BME280;28056;51.112;0.984;2023-05-10T02:40:22;100136.47;;;8.41;100.00
42411;BME280;28056;51.112;0.984;2023-05-10T02:42:53;100138.93;;;8.54;100.00
42411;BME280;28056;51.112;0.984;2023-05-10T02:45:25;100140.12;;;8.56;100.00
42411;BME280;28056;51.112;0.984;2023-05-10T02:47:54;100141.88;;;8.19;100.00
42411;BME280;28056;51.112;0.984;2023-05-10T02:50:26;100145.19;;;8.07;100.00
42411;BME280;28056;51.112;0.984;2023-05-10T02:53:00;100145.68;;;8.07;100.00
42411;BME280;28056;51.112;0.984;2023-05-10T02:55:35;100147.86;;;7.89;100.00
42411;BME280;28056;51.112;0.984;2023-05-10T02:58:04;100144.44;;;8.06;100.00
42411;BME280;28056;51.112;0.984;2023-05-10T03:00:31;100144.75;;;8.01;100.00
42411;BME280;28056;51.112;0.984;2023-05-10T03:02:59;100144.95;;;8.00;100.00
42411;BME280;28056;51.112;0.984;2023-05-10T03:05:27;100142.00;;;8.49;100.00
42411;BME280;28056;51.112;0.984;2023-05-10T03:07:55;100137.54;;;8.39;100.00
42411;BME280;28056;51.112;0.984;2023-05-10T03:10:26;100137.24;;;8.29;100.00
42411;BME280;28056;51.112;0.984;2023-05-10T03:13:05;100141.53;;;8.90;100.00
42411;BME280;28056;51.112;0.984;2023-05-10T03:15:40;100143.19;;;8.91;100.00
42411;BME280;28056;51.112;0.984;2023-05-10T03:18:12;100143.40;;;8.71;100.00
42411;BME280;28056;51.112;0.984;2023-05-10T03:20:47;100143.07;;;8.84;100.00
42411;BME280;28056;51.112;0.984;2023-05-10T03:23:22;100146.87;;;8.54;100.00
42411;BME280;28056;51.112;0.984;2023-05-10T03:25:52;100144.70;;;8.81;100.00
42411;BME280;28056;51.112;0.984;2023-05-10T03:28:21;100150.08;;;8.96;100.00
42411;BME280;28056;51.112;0.984;2023-05-10T03:30:49;100149.56;;;9.24;100.00
42411;BME280;28056;51.112;0.984;2023-05-10T03:33:18;100152.66;;;8.89;100.00
42411;BME280;28056;51.112;0.984;2023-05-10T03:35:46;100155.30;;;9.49;100.00
42411;BME280;28056;51.112;0.984;2023-05-10T03:38:13;100154.87;;;10.10;96.89
42411;BME280;28056;51.112;0.984;2023-05-10T03:40:40;100159.84;;;9.45;97.86
42411;BME280;28056;51.112;0.984;2023-05-10T03:43:08;100161.78;;;10.16;96.88
42411;BME280;28056;51.112;0.984;2023-05-10T03:45:35;100165.65;;;10.35;93.73
42411;BME280;28056;51.112;0.984;2023-05-10T03:48:03;100168.47;;;10.16;93.57
42411;BME280;28056;51.112;0.984;2023-05-10T03:50:30;100173.15;;;9.68;95.22
42411;BME280;28056;51.112;0.984;2023-05-10T03:52:57;100176.11;;;9.83;96.66
42411;BME280;28056;51.112;0.984;2023-05-10T03:55:25;100170.97;;;9.89;94.65
42411;BME280;28056;51.112;0.984;2023-05-10T03:57:52;100175.27;;;9.59;96.75
42411;BME280;28056;51.112;0.984;2023-05-10T04:00:20;100179.24;;;9.46;97.74
42411;BME280;28056;51.112;0.984;2023-05-10T04:02:47;100178.53;;;9.66;97.30
42411;BME280;28056;51.112;0.984;2023-05-10T04:05:15;100182.90;;;9.56;97.70
42411;BME280;28056;51.112;0.984;2023-05-10T04:07:42;100184.40;;;9.33;97.82
42411;BME280;28056;51.112;0.984;2023-05-10T04:10:10;100186.51;;;9.29;99.18
42411;BME280;28056;51.112;0.984;2023-05-10T04:12:38;100187.60;;;9.24;98.98
42411;BME280;28056;51.112;0.984;2023-05-10T04:15:07;100187.25;;;9.14;100.00
42411;BME280;28056;51.112;0.984;2023-05-10T04:17:35;100187.56;;;9.43;98.06
42411;BME280;28056;51.112;0.984;2023-05-10T04:20:04;100186.12;;;9.49;97.24
42411;BME280;28056;51.112;0.984;2023-05-10T04:22:32;100188.81;;;9.53;97.42
42411;BME280;28056;51.112;0.984;2023-05-10T04:24:59;100185.67;;;9.73;95.90
42411;BME280;28056;51.112;0.984;2023-05-10T04:27:27;100186.36;;;9.50;97.42
42411;BME280;28056;51.112;0.984;2023-05-10T04:29:54;100187.59;;;9.57;97.61
42411;BME280;28056;51.112;0.984;2023-05-10T04:32:22;100185.68;;;9.76;95.29
42411;BME280;28056;51.112;0.984;2023-05-10T04:34:49;100186.04;;;9.74;95.44
42411;BME280;28056;51.112;0.984;2023-05-10T04:37:17;100186.94;;;9.89;94.65
42411;BME280;28056;51.112;0.984;2023-05-10T04:39:44;100187.82;;;9.59;95.94
42411;BME280;28056;51.112;0.984;2023-05-10T04:42:11;100185.30;;;9.24;97.97
42411;BME280;28056;51.112;0.984;2023-05-10T04:44:38;100187.14;;;9.08;100.00
42411;BME280;28056;51.112;0.984;2023-05-10T04:47:06;100187.85;;;9.11;100.00
42411;BME280;28056;51.112;0.984;2023-05-10T04:49:34;100189.08;;;9.09;100.00
42411;BME280;28056;51.112;0.984;2023-05-10T04:52:01;100191.20;;;9.17;100.00
42411;BME280;28056;51.112;0.984;2023-05-10T04:54:29;100193.32;;;8.55;100.00
42411;BME280;28056;51.112;0.984;2023-05-10T04:56:57;100194.57;;;8.79;100.00
42411;BME280;28056;51.112;0.984;2023-05-10T04:59:25;100196.19;;;8.77;100.00
42411;BME280;28056;51.112;0.984;2023-05-10T05:01:52;100196.25;;;9.09;100.00
42411;BME280;28056;51.112;0.984;2023-05-10T05:04:19;100200.81;;;8.68;100.00
42411;BME280;28056;51.112;0.984;2023-05-10T05:06:46;100203.70;;;9.12;100.00
42411;BME280;28056;51.112;0.984;2023-05-10T05:09:14;100203.96;;;8.94;100.00
42411;BME280;28056;51.112;0.984;2023-05-10T05:11:42;100204.90;;;9.16;100.00
42411;BME280;28056;51.112;0.984;2023-05-10T05:14:09;100201.26;;;9.33;99.29
42411;BME280;28056;51.112;0.984;2023-05-10T05:16:37;100203.51;;;9.00;100.00
42411;BME280;28056;51.112;0.984;2023-05-10T05:19:04;100209.80;;;8.64;100.00
42411;BME280;28056;51.112;0.984;2023-05-10T05:21:31;100210.66;;;8.87;100.00
42411;BME280;28056;51.112;0.984;2023-05-10T05:23:59;100214.01;;;8.98;100.00
42411;BME280;28056;51.112;0.984;2023-05-10T05:26:26;100219.24;;;8.78;100.00
42411;BME280;28056;51.112;0.984;2023-05-10T05:28:54;100223.31;;;8.62;100.00
42411;BME280;28056;51.112;0.984;2023-05-10T05:31:21;100226.59;;;9.11;100.00
42411;BME280;28056;51.112;0.984;2023-05-10T05:33:49;100233.21;;;8.80;100.00
42411;BME280;28056;51.112;0.984;2023-05-10T05:36:16;100235.66;;;8.99;100.00
42411;BME280;28056;51.112;0.984;2023-05-10T05:38:44;100238.06;;;9.22;99.56
42411;BME280;28056;51.112;0.984;2023-05-10T05:41:11;100239.20;;;9.36;100.00
42411;BME280;28056;51.112;0.984;2023-05-10T05:43:39;100240.09;;;9.05;100.00
42411;BME280;28056;51.112;0.984;2023-05-10T05:46:06;100239.02;;;9.50;99.78
42411;BME280;28056;51.112;0.984;2023-05-10T05:48:34;100242.11;;;9.34;97.76
42411;BME280;28056;51.112;0.984;2023-05-10T05:51:02;100243.89;;;9.02;97.90
42411;BME280;28056;51.112;0.984;2023-05-10T05:53:29;100245.67;;;9.43;97.08
42411;BME280;28056;51.112;0.984;2023-05-10T05:55:58;100248.82;;;9.54;96.93
42411;BME280;28056;51.112;0.984;2023-05-10T05:58:26;100250.38;;;9.88;93.95
42411;BME280;28056;51.112;0.984;2023-05-10T06:00:55;100254.00;;;9.91;94.73
42411;BME280;28056;51.112;0.984;2023-05-10T06:03:22;100256.50;;;9.75;94.47
42411;BME280;28056;51.112;0.984;2023-05-10T06:05:49;100260.07;;;9.61;94.68
42411;BME280;28056;51.112;0.984;2023-05-10T06:08:17;100262.51;;;9.90;93.31
42411;BME280;28056;51.112;0.984;2023-05-10T06:10:44;100268.89;;;9.82;94.37
42411;BME280;28056;51.112;0.984;2023-05-10T06:13:12;100269.80;;;9.31;94.34
42411;BME280;28056;51.112;0.984;2023-05-10T06:15:40;100267.30;;;9.36;94.63
42411;BME280;28056;51.112;0.984;2023-05-10T06:18:07;100269.25;;;9.58;94.83
42411;BME280;28056;51.112;0.984;2023-05-10T06:20:35;100271.18;;;9.69;94.32
42411;BME280;28056;51.112;0.984;2023-05-10T06:23:02;100274.48;;;9.38;96.29
42411;BME280;28056;51.112;0.984;2023-05-10T06:25:29;100274.65;;;9.44;97.49
42411;BME280;28056;51.112;0.984;2023-05-10T06:27:56;100276.49;;;9.40;97.68
42411;BME280;28056;51.112;0.984;2023-05-10T06:30:24;100279.74;;;9.22;98.52
42411;BME280;28056;51.112;0.984;2023-05-10T06:32:52;100285.11;;;9.00;100.00
42411;BME280;28056;51.112;0.984;2023-05-10T06:35:19;100287.09;;;9.09;100.00
42411;BME280;28056;51.112;0.984;2023-05-10T06:37:46;100289.19;;;9.46;100.00
42411;BME280;28056;51.112;0.984;2023-05-10T06:40:14;100289.42;;;9.41;100.00
42411;BME280;28056;51.112;0.984;2023-05-10T06:42:41;100291.61;;;9.53;99.68
42411;BME280;28056;51.112;0.984;2023-05-10T06:45:09;100291.71;;;9.71;95.74
42411;BME280;28056;51.112;0.984;2023-05-10T06:47:37;100296.73;;;9.60;98.05
42411;BME280;28056;51.112;0.984;2023-05-10T06:50:06;100296.43;;;9.83;97.41
42411;BME280;28056;51.112;0.984;2023-05-10T06:52:33;100300.60;;;10.20;94.66
42411;BME280;28056;51.112;0.984;2023-05-10T06:55:01;100303.47;;;10.03;92.20
42411;BME280;28056;51.112;0.984;2023-05-10T06:57:28;100307.76;;;10.51;91.03
42411;BME280;28056;51.112;0.984;2023-05-10T06:59:56;100309.62;;;9.96;89.43
42411;BME280;28056;51.112;0.984;2023-05-10T07:02:24;100308.30;;;9.91;89.63
42411;BME280;28056;51.112;0.984;2023-05-10T07:04:52;100314.22;;;10.15;88.77
42411;BME280;28056;51.112;0.984;2023-05-10T07:07:19;100315.83;;;10.04;90.11
42411;BME280;28056;51.112;0.984;2023-05-10T07:09:47;100312.09;;;10.07;86.72
42411;BME280;28056;51.112;0.984;2023-05-10T07:12:15;100312.02;;;9.91;87.29
42411;BME280;28056;51.112;0.984;2023-05-10T07:14:43;100315.78;;;10.52;88.57
42411;BME280;28056;51.112;0.984;2023-05-10T07:17:10;100314.24;;;10.44;89.39
42411;BME280;28056;51.112;0.984;2023-05-10T07:19:38;100317.76;;;10.36;88.04
42411;BME280;28056;51.112;0.984;2023-05-10T07:22:06;100319.36;;;10.27;87.61
42411;BME280;28056;51.112;0.984;2023-05-10T07:24:34;100322.30;;;10.24;86.87
42411;BME280;28056;51.112;0.984;2023-05-10T07:27:02;100323.72;;;10.69;89.13
42411;BME280;28056;51.112;0.984;2023-05-10T07:29:29;100329.43;;;10.50;87.99
42411;BME280;28056;51.112;0.984;2023-05-10T07:31:56;100330.89;;;10.32;89.34
42411;BME280;28056;51.112;0.984;2023-05-10T07:34:23;100331.57;;;10.18;88.76
42411;BME280;28056;51.112;0.984;2023-05-10T07:36:50;100333.08;;;10.60;87.54
42411;BME280;28056;51.112;0.984;2023-05-10T07:39:18;100331.50;;;10.46;85.27
42411;BME280;28056;51.112;0.984;2023-05-10T07:41:45;100329.78;;;10.61;87.00
42411;BME280;28056;51.112;0.984;2023-05-10T07:44:13;100329.45;;;11.12;84.95
42411;BME280;28056;51.112;0.984;2023-05-10T07:46:41;100329.08;;;11.17;83.82
42411;BME280;28056;51.112;0.984;2023-05-10T07:49:08;100331.73;;;11.32;82.21
42411;BME280;28056;51.112;0.984;2023-05-10T07:51:36;100334.39;;;11.38;82.92
42411;BME280;28056;51.112;0.984;2023-05-10T07:54:04;100333.69;;;11.13;81.84
42411;BME280;28056;51.112;0.984;2023-05-10T07:56:32;100338.95;;;11.94;85.68
42411;BME280;28056;51.112;0.984;2023-05-10T07:58:59;100337.23;;;11.67;84.68
42411;BME280;28056;51.112;0.984;2023-05-10T08:01:30;100336.88;;;11.61;81.81
42411;BME280;28056;51.112;0.984;2023-05-10T08:03:58;100337.50;;;12.00;80.42
42411;BME280;28056;51.112;0.984;2023-05-10T08:06:26;100335.28;;;11.59;80.02
42411;BME280;28056;51.112;0.984;2023-05-10T08:08:53;100336.89;;;11.79;78.46
42411;BME280;28056;51.112;0.984;2023-05-10T08:11:21;100335.87;;;11.79;80.59
42411;BME280;28056;51.112;0.984;2023-05-10T08:13:49;100336.31;;;11.94;79.62
42411;BME280;28056;51.112;0.984;2023-05-10T08:16:17;100339.01;;;12.18;79.60
42411;BME280;28056;51.112;0.984;2023-05-10T08:18:45;100338.59;;;11.61;80.45
42411;BME280;28056;51.112;0.984;2023-05-10T08:21:13;100342.29;;;11.91;78.94
42411;BME280;28056;51.112;0.984;2023-05-10T08:23:41;100338.62;;;11.76;78.49
42411;BME280;28056;51.112;0.984;2023-05-10T08:26:09;100342.70;;;11.56;78.55
42411;BME280;28056;51.112;0.984;2023-05-10T08:28:36;100349.00;;;11.92;79.85
42411;BME280;28056;51.112;0.984;2023-05-10T08:31:05;100347.35;;;12.05;73.38
42411;BME280;28056;51.112;0.984;2023-05-10T08:33:32;100351.07;;;12.19;74.81
42411;BME280;28056;51.112;0.984;2023-05-10T08:36:00;100355.76;;;12.88;71.67
42411;BME280;28056;51.112;0.984;2023-05-10T08:38:28;100357.70;;;12.85;69.36
42411;BME280;28056;51.112;0.984;2023-05-10T08:40:56;100358.38;;;12.99;70.48
42411;BME280;28056;51.112;0.984;2023-05-10T08:43:27;100362.07;;;12.71;71.75
42411;BME280;28056;51.112;0.984;2023-05-10T08:45:55;100366.19;;;12.25;73.87
42411;BME280;28056;51.112;0.984;2023-05-10T08:48:24;100367.86;;;12.34;75.60
42411;BME280;28056;51.112;0.984;2023-05-10T08:50:53;100367.35;;;13.03;72.27
42411;BME280;28056;51.112;0.984;2023-05-10T08:53:21;100364.89;;;13.34;72.81
42411;BME280;28056;51.112;0.984;2023-05-10T08:55:52;100358.86;;;13.96;74.71
42411;BME280;28056;51.112;0.984;2023-05-10T08:58:20;100364.62;;;13.45;72.31
42411;BME280;28056;51.112;0.984;2023-05-10T09:00:49;100363.07;;;13.47;73.99
42411;BME280;28056;51.112;0.984;2023-05-10T09:03:16;100367.25;;;12.90;72.35
42411;BME280;28056;51.112;0.984;2023-05-10T09:05:45;100371.25;;;13.11;74.15
42411;BME280;28056;51.112;0.984;2023-05-10T09:08:13;100371.85;;;13.65;71.97
42411;BME280;28056;51.112;0.984;2023-05-10T09:10:41;100369.47;;;14.34;71.25
42411;BME280;28056;51.112;0.984;2023-05-10T09:13:10;100375.65;;;13.42;69.72
42411;BME280;28056;51.112;0.984;2023-05-10T09:15:38;100377.58;;;13.24;70.46
42411;BME280;28056;51.112;0.984;2023-05-10T09:18:06;100375.99;;;12.97;70.61
42411;BME280;28056;51.112;0.984;2023-05-10T09:20:33;100378.71;;;12.52;72.89
42411;BME280;28056;51.112;0.984;2023-05-10T09:23:01;100376.77;;;12.69;72.47
42411;BME280;28056;51.112;0.984;2023-05-10T09:25:29;100379.18;;;13.70;74.94
42411;BME280;28056;51.112;0.984;2023-05-10T09:27:56;100381.37;;;12.82;71.99
42411;BME280;28056;51.112;0.984;2023-05-10T09:30:25;100382.38;;;12.44;70.60
42411;BME280;28056;51.112;0.984;2023-05-10T09:32:54;100385.87;;;13.26;72.71
42411;BME280;28056;51.112;0.984;2023-05-10T09:35:24;100385.05;;;13.66;70.40
42411;BME280;28056;51.112;0.984;2023-05-10T09:37:53;100378.84;;;13.94;76.27
42411;BME280;28056;51.112;0.984;2023-05-10T09:40:22;100379.15;;;14.16;73.04
42411;BME280;28056;51.112;0.984;2023-05-10T09:42:54;100387.33;;;13.53;69.65
42411;BME280;28056;51.112;0.984;2023-05-10T09:45:22;100388.31;;;12.92;68.32
42411;BME280;28056;51.112;0.984;2023-05-10T09:47:49;100388.18;;;12.53;70.93
42411;BME280;28056;51.112;0.984;2023-05-10T09:50:18;100393.82;;;13.17;72.34
42411;BME280;28056;51.112;0.984;2023-05-10T09:52:47;100395.67;;;13.60;68.81
42411;BME280;28056;51.112;0.984;2023-05-10T09:55:16;100394.11;;;13.83;73.65
42411;BME280;28056;51.112;0.984;2023-05-10T09:57:43;100394.34;;;14.56;70.95
42411;BME280;28056;51.112;0.984;2023-05-10T10:00:17;100397.58;;;13.68;65.78
42411;BME280;28056;51.112;0.984;2023-05-10T10:02:46;100400.12;;;13.96;66.12
42411;BME280;28056;51.112;0.984;2023-05-10T10:05:14;100395.45;;;14.25;63.37
42411;BME280;28056;51.112;0.984;2023-05-10T10:07:42;100392.46;;;14.93;66.28
42411;BME280;28056;51.112;0.984;2023-05-10T10:10:09;100389.50;;;14.02;62.84
42411;BME280;28056;51.112;0.984;2023-05-10T10:12:37;100395.02;;;14.23;67.78
42411;BME280;28056;51.112;0.984;2023-05-10T10:15:05;100393.34;;;14.05;64.69
42411;BME280;28056;51.112;0.984;2023-05-10T10:17:36;100395.84;;;13.75;62.33
42411;BME280;28056;51.112;0.984;2023-05-10T10:20:05;100394.60;;;14.73;59.82
42411;BME280;28056;51.112;0.984;2023-05-10T10:22:32;100397.27;;;15.21;62.54
42411;BME280;28056;51.112;0.984;2023-05-10T10:25:00;100393.11;;;15.35;63.91
42411;BME280;28056;51.112;0.984;2023-05-10T10:27:43;100399.06;;;15.89;60.92
42411;BME280;28056;51.112;0.984;2023-05-10T10:30:21;100396.22;;;15.01;54.20
42411;BME280;28056;51.112;0.984;2023-05-10T10:33:13;100397.05;;;15.03;53.22
42411;BME280;28056;51.112;0.984;2023-05-10T10:35:45;100395.23;;;15.25;58.01
42411;BME280;28056;51.112;0.984;2023-05-10T10:38:13;100396.37;;;14.80;60.05
42411;BME280;28056;51.112;0.984;2023-05-10T10:40:41;100393.05;;;15.04;62.50
42411;BME280;28056;51.112;0.984;2023-05-10T10:43:22;100389.46;;;15.48;60.31
42411;BME280;28056;51.112;0.984;2023-05-10T10:46:10;100390.25;;;15.24;58.90
42411;BME280;28056;51.112;0.984;2023-05-10T10:48:38;100390.16;;;16.91;51.80
42411;BME280;28056;51.112;0.984;2023-05-10T10:51:06;100386.07;;;16.64;56.21
42411;BME280;28056;51.112;0.984;2023-05-10T10:53:33;100388.55;;;15.73;57.04
42411;BME280;28056;51.112;0.984;2023-05-10T10:56:09;100383.49;;;16.58;55.72
42411;BME280;28056;51.112;0.984;2023-05-10T10:58:38;100381.73;;;16.27;57.36
42411;BME280;28056;51.112;0.984;2023-05-10T11:01:14;100382.30;;;16.44;55.03
42411;BME280;28056;51.112;0.984;2023-05-10T11:04:16;100377.19;;;16.52;48.59
42411;BME280;28056;51.112;0.984;2023-05-10T11:06:44;100381.96;;;17.40;53.40
42411;BME280;28056;51.112;0.984;2023-05-10T11:09:12;100384.00;;;18.42;51.46
42411;BME280;28056;51.112;0.984;2023-05-10T11:11:51;100380.23;;;17.70;44.29
42411;BME280;28056;51.112;0.984;2023-05-10T11:14:20;100378.91;;;16.78;48.48
42411;BME280;28056;51.112;0.984;2023-05-10T11:16:49;100380.72;;;17.40;45.62
42411;BME280;28056;51.112;0.984;2023-05-10T11:19:17;100381.51;;;16.82;49.60
42411;BME280;28056;51.112;0.984;2023-05-10T11:21:46;100379.03;;;16.13;55.64
42411;BME280;28056;51.112;0.984;2023-05-10T11:24:15;100378.91;;;17.27;53.40
42411;BME280;28056;51.112;0.984;2023-05-10T11:26:44;100379.04;;;18.63;50.70
42411;BME280;28056;51.112;0.984;2023-05-10T11:29:13;100381.21;;;18.08;45.90
42411;BME280;28056;51.112;0.984;2023-05-10T11:31:45;100379.00;;;17.50;53.84
42411;BME280;28056;51.112;0.984;2023-05-10T11:34:23;100377.02;;;18.25;44.06
42411;BME280;28056;51.112;0.984;2023-05-10T11:36:52;100374.71;;;16.84;47.46
42411;BME280;28056;51.112;0.984;2023-05-10T11:39:20;100373.39;;;17.13;48.17
42411;BME280;28056;51.112;0.984;2023-05-10T11:41:48;100373.79;;;16.66;45.89
42411;BME280;28056;51.112;0.984;2023-05-10T11:44:16;100374.49;;;18.53;46.44
42411;BME280;28056;51.112;0.984;2023-05-10T11:46:44;100375.13;;;17.19;51.41
42411;BME280;28056;51.112;0.984;2023-05-10T11:49:11;100378.08;;;17.48;46.64
42411;BME280;28056;51.112;0.984;2023-05-10T11:51:39;100374.67;;;18.58;41.97
42411;BME280;28056;51.112;0.984;2023-05-10T11:54:07;100376.75;;;17.76;42.52
42411;BME280;28056;51.112;0.984;2023-05-10T11:56:36;100375.64;;;17.49;42.50
42411;BME280;28056;51.112;0.984;2023-05-10T11:59:04;100377.76;;;17.43;41.45
42411;BME280;28056;51.112;0.984;2023-05-10T12:01:31;100378.46;;;16.26;48.35
42411;BME280;28056;51.112;0.984;2023-05-10T12:04:00;100379.71;;;15.43;47.73
42411;BME280;28056;51.112;0.984;2023-05-10T12:06:29;100381.03;;;15.11;50.82
42411;BME280;28056;51.112;0.984;2023-05-10T12:08:58;100382.50;;;14.86;50.41
42411;BME280;28056;51.112;0.984;2023-05-10T12:11:26;100380.80;;;15.43;52.02
42411;BME280;28056;51.112;0.984;2023-05-10T12:13:55;100375.26;;;16.59;49.39
42411;BME280;28056;51.112;0.984;2023-05-10T12:16:24;100378.67;;;16.88;49.70
42411;BME280;28056;51.112;0.984;2023-05-10T12:18:52;100379.20;;;17.68;49.98
42411;BME280;28056;51.112;0.984;2023-05-10T12:21:21;100379.33;;;16.96;48.09
42411;BME280;28056;51.112;0.984;2023-05-10T12:23:50;100377.00;;;17.46;46.66
42411;BME280;28056;51.112;0.984;2023-05-10T12:26:21;100376.89;;;17.80;45.94
42411;BME280;28056;51.112;0.984;2023-05-10T12:28:48;100382.92;;;17.75;45.70
42411;BME280;28056;51.112;0.984;2023-05-10T12:31:16;100379.61;;;18.88;45.64
42411;BME280;28056;51.112;0.984;2023-05-10T12:33:44;100384.35;;;18.14;45.68
42411;BME280;28056;51.112;0.984;2023-05-10T12:36:15;100381.78;;;18.56;42.04
42411;BME280;28056;51.112;0.984;2023-05-10T12:38:43;100380.49;;;19.58;43.35
42411;BME280;28056;51.112;0.984;2023-05-10T12:41:13;100380.39;;;19.64;43.79
42411;BME280;28056;51.112;0.984;2023-05-10T12:43:41;100387.60;;;18.75;40.66
42411;BME280;28056;51.112;0.984;2023-05-10T12:46:09;100388.29;;;18.68;47.06
42411;BME280;28056;51.112;0.984;2023-05-10T12:48:38;100388.93;;;17.68;49.40
42411;BME280;28056;51.112;0.984;2023-05-10T12:51:07;100389.94;;;17.73;49.80
42411;BME280;28056;51.112;0.984;2023-05-10T12:53:34;100389.96;;;16.75;55.74
42411;BME280;28056;51.112;0.984;2023-05-10T12:56:02;100393.43;;;15.52;61.36
42411;BME280;28056;51.112;0.984;2023-05-10T12:58:29;100388.75;;;15.89;63.19
42411;BME280;28056;51.112;0.984;2023-05-10T13:00:57;100395.82;;;15.70;64.57
42411;BME280;28056;51.112;0.984;2023-05-10T13:03:25;100397.98;;;14.42;68.40
42411;BME280;28056;51.112;0.984;2023-05-10T13:05:53;100401.54;;;15.53;65.85